sensor_id;sensor_type;location;lat;lon;timestamp;P1;durP1;ratioP1;P2;durP2;ratioP2
34497;SDS011;20744;50.938;7.286;2022-10-22T00:02:00;11.65;;;5.13;;
34497;SDS011;20744;50.938;7.286;2022-10-22T00:04:29;17.63;;;5.60;;
34497;SDS011;20744;50.938;7.286;2022-10-22T00:06:57;13.38;;;5.03;;
34497;SDS011;20744;50.938;7.286;2022-10-22T00:09:25;22.42;;;5.90;;
34497;SDS011;20744;50.938;7.286;2022-10-22T00:11:52;17.27;;;5.55;;
34497;SDS011;20744;50.938;7.286;2022-10-22T00:14:20;18.83;;;5.25;;
34497;SDS011;20744;50.938;7.286;2022-10-22T00:16:47;12.85;;;5.07;;
34497;SDS011;20744;50.938;7.286;2022-10-22T00:19:14;12.70;;;5.00;;
34497;SDS011;20744;50.938;7.286;2022-10-22T00:21:41;11.85;;;5.35;;
34497;SDS011;20744;50.938;7.286;2022-10-22T00:24:08;7.50;;;5.50;;
34497;SDS011;20744;50.938;7.286;2022-10-22T00:26:37;15.40;;;6.03;;
34497;SDS011;20744;50.938;7.286;2022-10-22T00:29:04;13.32;;;6.05;;
34497;SDS011;20744;50.938;7.286;2022-10-22T00:31:31;10.40;;;7.15;;
34497;SDS011;20744;50.938;7.286;2022-10-22T00:33:59;11.68;;;6.30;;
34497;SDS011;20744;50.938;7.286;2022-10-22T00:36:26;14.38;;;6.30;;
34497;SDS011;20744;50.938;7.286;2022-10-22T00:38:54;11.48;;;6.10;;
34497;SDS011;20744;50.938;7.286;2022-10-22T00:41:21;12.57;;;5.80;;
34497;SDS011;20744;50.938;7.286;2022-10-22T00:43:53;10.25;;;6.00;;
34497;SDS011;20744;50.938;7.286;2022-10-22T00:46:21;13.25;;;7.28;;
34497;SDS011;20744;50.938;7.286;2022-10-22T00:48:48;11.05;;;6.35;;
34497;SDS011;20744;50.938;7.286;2022-10-22T00:51:17;12.98;;;5.90;;
34497;SDS011;20744;50.938;7.286;2022-10-22T00:53:46;20.38;;;6.10;;
34497;SDS011;20744;50.938;7.286;2022-10-22T00:56:14;14.48;;;6.63;;
34497;SDS011;20744;50.938;7.286;2022-10-22T00:58:42;14.77;;;6.45;;
34497;SDS011;20744;50.938;7.286;2022-10-22T01:01:12;16.85;;;6.95;;
34497;SDS011;20744;50.938;7.286;2022-10-22T01:03:40;10.73;;;6.60;;
34497;SDS011;20744;50.938;7.286;2022-10-22T01:06:09;13.95;;;7.18;;
34497;SDS011;20744;50.938;7.286;2022-10-22T01:08:40;12.65;;;7.43;;
34497;SDS011;20744;50.938;7.286;2022-10-22T01:11:11;19.77;;;8.32;;
34497;SDS011;20744;50.938;7.286;2022-10-22T01:13:44;19.90;;;7.13;;
34497;SDS011;20744;50.938;7.286;2022-10-22T01:16:15;13.50;;;7.47;;
34497;SDS011;20744;50.938;7.286;2022-10-22T01:18:45;16.23;;;7.72;;
34497;SDS011;20744;50.938;7.286;2022-10-22T01:21:20;15.82;;;7.72;;
34497;SDS011;20744;50.938;7.286;2022-10-22T01:24:07;18.13;;;7.22;;
34497;SDS011;20744;50.938;7.286;2022-10-22T01:26:41;18.05;;;7.00;;
34497;SDS011;20744;50.938;7.286;2022-10-22T01:29:12;13.65;;;7.45;;
34497;SDS011;20744;50.938;7.286;2022-10-22T01:31:41;16.33;;;7.22;;
34497;SDS011;20744;50.938;7.286;2022-10-22T01:34:10;14.90;;;7.07;;
34497;SDS011;20744;50.938;7.286;2022-10-22T01:36:38;13.00;;;7.20;;
34497;SDS011;20744;50.938;7.286;2022-10-22T01:39:06;14.77;;;6.20;;
34497;SDS011;20744;50.938;7.286;2022-10-22T01:41:34;16.25;;;5.93;;
34497;SDS011;20744;50.938;7.286;2022-10-22T01:44:01;19.88;;;6.18;;
34497;SDS011;20744;50.938;7.286;2022-10-22T01:46:30;11.00;;;5.55;;
34497;SDS011;20744;50.938;7.286;2022-10-22T01:49:02;15.95;;;6.13;;
34497;SDS011;20744;50.938;7.286;2022-10-22T01:51:42;12.57;;;5.70;;
34497;SDS011;20744;50.938;7.286;2022-10-22T01:54:12;11.05;;;7.18;;
34497;SDS011;20744;50.938;7.286;2022-10-22T01:56:49;16.98;;;6.57;;
34497;SDS011;20744;50.938;7.286;2022-10-22T01:59:21;10.45;;;6.78;;
34497;SDS011;20744;50.938;7.286;2022-10-22T02:01:55;18.38;;;7.63;;
34497;SDS011;20744;50.938;7.286;2022-10-22T02:04:26;16.05;;;6.35;;
34497;SDS011;20744;50.938;7.286;2022-10-22T02:06:55;17.40;;;6.35;;
34497;SDS011;20744;50.938;7.286;2022-10-22T02:09:24;14.63;;;6.65;;
34497;SDS011;20744;50.938;7.286;2022-10-22T02:11:52;25.02;;;7.65;;
34497;SDS011;20744;50.938;7.286;2022-10-22T02:14:20;18.55;;;5.88;;
34497;SDS011;20744;50.938;7.286;2022-10-22T02:16:48;15.68;;;5.70;;
34497;SDS011;20744;50.938;7.286;2022-10-22T02:19:21;18.77;;;6.43;;
34497;SDS011;20744;50.938;7.286;2022-10-22T02:21:50;14.77;;;6.53;;
34497;SDS011;20744;50.938;7.286;2022-10-22T02:24:17;11.00;;;6.65;;
34497;SDS011;20744;50.938;7.286;2022-10-22T02:26:46;20.02;;;6.70;;
34497;SDS011;20744;50.938;7.286;2022-10-22T02:29:19;12.50;;;5.53;;
34497;SDS011;20744;50.938;7.286;2022-10-22T02:31:48;15.00;;;6.68;;
34497;SDS011;20744;50.938;7.286;2022-10-22T02:34:19;16.98;;;7.40;;
34497;SDS011;20744;50.938;7.286;2022-10-22T02:36:53;9.90;;;7.05;;
34497;SDS011;20744;50.938;7.286;2022-10-22T02:39:23;16.08;;;7.15;;
34497;SDS011;20744;50.938;7.286;2022-10-22T02:41:51;17.25;;;6.65;;
34497;SDS011;20744;50.938;7.286;2022-10-22T02:44:22;12.98;;;7.43;;
34497;SDS011;20744;50.938;7.286;2022-10-22T02:46:50;13.43;;;6.93;;
34497;SDS011;20744;50.938;7.286;2022-10-22T02:49:22;17.67;;;7.43;;
34497;SDS011;20744;50.938;7.286;2022-10-22T02:51:49;14.07;;;6.68;;
34497;SDS011;20744;50.938;7.286;2022-10-22T02:54:16;16.73;;;7.20;;
34497;SDS011;20744;50.938;7.286;2022-10-22T02:56:43;16.13;;;6.63;;
34497;SDS011;20744;50.938;7.286;2022-10-22T02:59:10;13.63;;;6.53;;
34497;SDS011;20744;50.938;7.286;2022-10-22T03:01:38;16.17;;;6.65;;
34497;SDS011;20744;50.938;7.286;2022-10-22T03:04:05;18.27;;;6.88;;
34497;SDS011;20744;50.938;7.286;2022-10-22T03:06:33;18.13;;;7.38;;
34497;SDS011;20744;50.938;7.286;2022-10-22T03:09:01;12.98;;;7.00;;
34497;SDS011;20744;50.938;7.286;2022-10-22T03:11:28;21.63;;;8.15;;
34497;SDS011;20744;50.938;7.286;2022-10-22T03:13:55;67.20;;;9.45;;
34497;SDS011;20744;50.938;7.286;2022-10-22T03:16:22;19.33;;;7.68;;
34497;SDS011;20744;50.938;7.286;2022-10-22T03:18:49;18.00;;;6.75;;
34497;SDS011;20744;50.938;7.286;2022-10-22T03:21:19;18.00;;;6.70;;
34497;SDS011;20744;50.938;7.286;2022-10-22T03:23:48;11.15;;;7.03;;
34497;SDS011;20744;50.938;7.286;2022-10-22T03:26:15;11.10;;;6.60;;
34497;SDS011;20744;50.938;7.286;2022-10-22T03:28:43;9.38;;;7.25;;
34497;SDS011;20744;50.938;7.286;2022-10-22T03:31:10;19.23;;;7.38;;
34497;SDS011;20744;50.938;7.286;2022-10-22T03:33:38;15.43;;;6.75;;
34497;SDS011;20744;50.938;7.286;2022-10-22T03:36:05;13.45;;;6.47;;
34497;SDS011;20744;50.938;7.286;2022-10-22T03:38:33;18.90;;;6.70;;
34497;SDS011;20744;50.938;7.286;2022-10-22T03:41:02;16.08;;;6.65;;
34497;SDS011;20744;50.938;7.286;2022-10-22T03:43:29;10.48;;;6.40;;
34497;SDS011;20744;50.938;7.286;2022-10-22T03:45:56;7.72;;;6.57;;
34497;SDS011;20744;50.938;7.286;2022-10-22T03:48:24;11.32;;;5.80;;
34497;SDS011;20744;50.938;7.286;2022-10-22T03:50:51;19.63;;;6.18;;
34497;SDS011;20744;50.938;7.286;2022-10-22T03:53:18;7.95;;;5.50;;
34497;SDS011;20744;50.938;7.286;2022-10-22T03:55:45;12.95;;;6.03;;
34497;SDS011;20744;50.938;7.286;2022-10-22T03:58:14;19.02;;;5.93;;
34497;SDS011;20744;50.938;7.286;2022-10-22T04:00:41;13.27;;;6.03;;
34497;SDS011;20744;50.938;7.286;2022-10-22T04:03:08;16.33;;;6.70;;
34497;SDS011;20744;50.938;7.286;2022-10-22T04:05:36;11.02;;;5.43;;
34497;SDS011;20744;50.938;7.286;2022-10-22T04:08:03;12.80;;;5.60;;
34497;SDS011;20744;50.938;7.286;2022-10-22T04:10:30;7.57;;;5.13;;
34497;SDS011;20744;50.938;7.286;2022-10-22T04:12:57;15.75;;;5.72;;
34497;SDS011;20744;50.938;7.286;2022-10-22T04:15:26;9.50;;;5.30;;
34497;SDS011;20744;50.938;7.286;2022-10-22T04:17:53;12.48;;;5.68;;
34497;SDS011;20744;50.938;7.286;2022-10-22T04:20:20;14.43;;;5.78;;
34497;SDS011;20744;50.938;7.286;2022-10-22T04:22:48;10.48;;;5.15;;
34497;SDS011;20744;50.938;7.286;2022-10-22T04:25:15;14.45;;;5.82;;
34497;SDS011;20744;50.938;7.286;2022-10-22T04:27:42;11.73;;;5.90;;
34497;SDS011;20744;50.938;7.286;2022-10-22T04:30:10;12.93;;;6.00;;
34497;SDS011;20744;50.938;7.286;2022-10-22T04:32:39;14.23;;;6.55;;
34497;SDS011;20744;50.938;7.286;2022-10-22T04:35:06;13.55;;;5.90;;
34497;SDS011;20744;50.938;7.286;2022-10-22T04:37:33;8.65;;;6.05;;
34497;SDS011;20744;50.938;7.286;2022-10-22T04:40:01;15.60;;;7.03;;
34497;SDS011;20744;50.938;7.286;2022-10-22T04:42:28;13.13;;;6.63;;
34497;SDS011;20744;50.938;7.286;2022-10-22T04:44:55;13.85;;;6.80;;
34497;SDS011;20744;50.938;7.286;2022-10-22T04:47:22;15.07;;;6.78;;
34497;SDS011;20744;50.938;7.286;2022-10-22T04:49:51;12.60;;;6.45;;
34497;SDS011;20744;50.938;7.286;2022-10-22T04:52:20;16.23;;;6.53;;
34497;SDS011;20744;50.938;7.286;2022-10-22T04:54:47;18.38;;;6.15;;
34497;SDS011;20744;50.938;7.286;2022-10-22T04:57:14;15.63;;;5.70;;
34497;SDS011;20744;50.938;7.286;2022-10-22T04:59:42;20.48;;;6.22;;
34497;SDS011;20744;50.938;7.286;2022-10-22T05:02:09;11.73;;;6.18;;
34497;SDS011;20744;50.938;7.286;2022-10-22T05:04:36;13.55;;;6.85;;
34497;SDS011;20744;50.938;7.286;2022-10-22T05:07:05;24.10;;;7.70;;
34497;SDS011;20744;50.938;7.286;2022-10-22T05:09:32;11.30;;;5.65;;
34497;SDS011;20744;50.938;7.286;2022-10-22T05:11:59;13.55;;;6.40;;
34497;SDS011;20744;50.938;7.286;2022-10-22T05:14:26;11.02;;;6.65;;
34497;SDS011;20744;50.938;7.286;2022-10-22T05:16:54;19.88;;;6.97;;
34497;SDS011;20744;50.938;7.286;2022-10-22T05:19:22;16.05;;;7.20;;
34497;SDS011;20744;50.938;7.286;2022-10-22T05:21:49;10.70;;;6.63;;
34497;SDS011;20744;50.938;7.286;2022-10-22T05:24:18;13.23;;;6.85;;
34497;SDS011;20744;50.938;7.286;2022-10-22T05:26:47;18.88;;;7.43;;
34497;SDS011;20744;50.938;7.286;2022-10-22T05:29:14;17.65;;;6.88;;
34497;SDS011;20744;50.938;7.286;2022-10-22T05:31:42;15.93;;;6.95;;
34497;SDS011;20744;50.938;7.286;2022-10-22T05:34:09;14.27;;;6.75;;
34497;SDS011;20744;50.938;7.286;2022-10-22T05:36:36;12.60;;;7.95;;
34497;SDS011;20744;50.938;7.286;2022-10-22T05:39:04;19.15;;;8.73;;
34497;SDS011;20744;50.938;7.286;2022-10-22T05:41:33;21.95;;;10.10;;
34497;SDS011;20744;50.938;7.286;2022-10-22T05:44:00;15.98;;;8.10;;
34497;SDS011;20744;50.938;7.286;2022-10-22T05:46:29;20.13;;;7.68;;
34497;SDS011;20744;50.938;7.286;2022-10-22T05:48:57;26.73;;;7.97;;
34497;SDS011;20744;50.938;7.286;2022-10-22T05:51:25;14.90;;;6.93;;
34497;SDS011;20744;50.938;7.286;2022-10-22T05:53:53;15.98;;;6.93;;
34497;SDS011;20744;50.938;7.286;2022-10-22T05:56:20;11.25;;;7.25;;
34497;SDS011;20744;50.938;7.286;2022-10-22T05:58:49;15.88;;;7.35;;
34497;SDS011;20744;50.938;7.286;2022-10-22T06:01:17;15.70;;;9.10;;
34497;SDS011;20744;50.938;7.286;2022-10-22T06:03:45;23.58;;;9.50;;
34497;SDS011;20744;50.938;7.286;2022-10-22T06:06:16;16.95;;;9.27;;
34497;SDS011;20744;50.938;7.286;2022-10-22T06:08:43;13.77;;;8.07;;
34497;SDS011;20744;50.938;7.286;2022-10-22T06:11:11;11.95;;;7.65;;
34497;SDS011;20744;50.938;7.286;2022-10-22T06:13:38;16.17;;;8.45;;
34497;SDS011;20744;50.938;7.286;2022-10-22T06:16:07;16.17;;;7.93;;
34497;SDS011;20744;50.938;7.286;2022-10-22T06:18:34;12.05;;;7.30;;
34497;SDS011;20744;50.938;7.286;2022-10-22T06:21:04;15.90;;;7.47;;
34497;SDS011;20744;50.938;7.286;2022-10-22T06:23:32;16.40;;;9.65;;
34497;SDS011;20744;50.938;7.286;2022-10-22T06:25:59;14.73;;;7.35;;
34497;SDS011;20744;50.938;7.286;2022-10-22T06:28:26;8.95;;;7.10;;
34497;SDS011;20744;50.938;7.286;2022-10-22T06:30:55;14.48;;;6.45;;
34497;SDS011;20744;50.938;7.286;2022-10-22T06:33:24;19.73;;;5.45;;
34497;SDS011;20744;50.938;7.286;2022-10-22T06:35:51;9.52;;;5.32;;
34497;SDS011;20744;50.938;7.286;2022-10-22T06:38:19;9.15;;;5.45;;
34497;SDS011;20744;50.938;7.286;2022-10-22T06:40:46;13.68;;;6.43;;
34497;SDS011;20744;50.938;7.286;2022-10-22T06:43:13;12.27;;;5.97;;
34497;SDS011;20744;50.938;7.286;2022-10-22T06:45:41;10.07;;;5.63;;
34497;SDS011;20744;50.938;7.286;2022-10-22T06:48:08;10.82;;;5.78;;
34497;SDS011;20744;50.938;7.286;2022-10-22T06:50:36;15.18;;;6.93;;
34497;SDS011;20744;50.938;7.286;2022-10-22T06:53:03;17.23;;;7.97;;
34497;SDS011;20744;50.938;7.286;2022-10-22T06:55:31;16.40;;;9.13;;
34497;SDS011;20744;50.938;7.286;2022-10-22T06:57:58;24.48;;;9.07;;
34497;SDS011;20744;50.938;7.286;2022-10-22T07:00:25;18.30;;;9.77;;
34497;SDS011;20744;50.938;7.286;2022-10-22T07:02:52;18.45;;;9.65;;
34497;SDS011;20744;50.938;7.286;2022-10-22T07:05:20;19.77;;;10.00;;
34497;SDS011;20744;50.938;7.286;2022-10-22T07:07:48;16.45;;;9.70;;
34497;SDS011;20744;50.938;7.286;2022-10-22T07:10:15;18.50;;;8.55;;
34497;SDS011;20744;50.938;7.286;2022-10-22T07:12:43;23.58;;;7.13;;
34497;SDS011;20744;50.938;7.286;2022-10-22T07:15:10;15.90;;;7.82;;
34497;SDS011;20744;50.938;7.286;2022-10-22T07:17:37;9.73;;;7.55;;
34497;SDS011;20744;50.938;7.286;2022-10-22T07:20:05;12.82;;;7.75;;
34497;SDS011;20744;50.938;7.286;2022-10-22T07:22:32;10.88;;;6.85;;
34497;SDS011;20744;50.938;7.286;2022-10-22T07:25:01;22.52;;;8.82;;
34497;SDS011;20744;50.938;7.286;2022-10-22T07:27:28;13.32;;;6.47;;
34497;SDS011;20744;50.938;7.286;2022-10-22T07:29:55;11.63;;;7.20;;
34497;SDS011;20744;50.938;7.286;2022-10-22T07:32:25;7.72;;;6.88;;
34497;SDS011;20744;50.938;7.286;2022-10-22T07:34:52;13.15;;;7.30;;
34497;SDS011;20744;50.938;7.286;2022-10-22T07:37:19;16.70;;;6.82;;
34497;SDS011;20744;50.938;7.286;2022-10-22T07:39:47;20.13;;;6.97;;
34497;SDS011;20744;50.938;7.286;2022-10-22T07:42:15;17.88;;;6.90;;
34497;SDS011;20744;50.938;7.286;2022-10-22T07:44:42;10.68;;;7.05;;
34497;SDS011;20744;50.938;7.286;2022-10-22T07:47:10;9.73;;;6.85;;
34497;SDS011;20744;50.938;7.286;2022-10-22T07:49:37;9.02;;;7.30;;
34497;SDS011;20744;50.938;7.286;2022-10-22T07:52:05;12.35;;;6.50;;
34497;SDS011;20744;50.938;7.286;2022-10-22T07:54:32;17.52;;;8.18;;
34497;SDS011;20744;50.938;7.286;2022-10-22T07:57:00;13.05;;;8.43;;
34497;SDS011;20744;50.938;7.286;2022-10-22T07:59:28;15.98;;;10.23;;
34497;SDS011;20744;50.938;7.286;2022-10-22T08:01:55;22.75;;;10.75;;
34497;SDS011;20744;50.938;7.286;2022-10-22T08:04:23;23.55;;;12.38;;
34497;SDS011;20744;50.938;7.286;2022-10-22T08:06:50;22.55;;;11.57;;
34497;SDS011;20744;50.938;7.286;2022-10-22T08:09:17;16.27;;;10.23;;
34497;SDS011;20744;50.938;7.286;2022-10-22T08:11:44;18.63;;;11.18;;
34497;SDS011;20744;50.938;7.286;2022-10-22T08:14:11;20.50;;;11.30;;
34497;SDS011;20744;50.938;7.286;2022-10-22T08:16:40;25.00;;;10.57;;
34497;SDS011;20744;50.938;7.286;2022-10-22T08:19:07;16.95;;;9.23;;
34497;SDS011;20744;50.938;7.286;2022-10-22T08:21:34;18.77;;;8.70;;
34497;SDS011;20744;50.938;7.286;2022-10-22T08:24:02;13.63;;;8.68;;
34497;SDS011;20744;50.938;7.286;2022-10-22T08:26:29;16.95;;;9.32;;
34497;SDS011;20744;50.938;7.286;2022-10-22T08:28:56;16.27;;;9.15;;
34497;SDS011;20744;50.938;7.286;2022-10-22T08:31:24;17.92;;;10.55;;
34497;SDS011;20744;50.938;7.286;2022-10-22T08:33:52;20.42;;;11.63;;
34497;SDS011;20744;50.938;7.286;2022-10-22T08:36:19;24.73;;;11.70;;
34497;SDS011;20744;50.938;7.286;2022-10-22T08:38:47;19.58;;;10.45;;
34497;SDS011;20744;50.938;7.286;2022-10-22T08:41:17;19.48;;;10.48;;
34497;SDS011;20744;50.938;7.286;2022-10-22T08:44:00;17.58;;;9.90;;
34497;SDS011;20744;50.938;7.286;2022-10-22T08:46:33;14.55;;;9.13;;
34497;SDS011;20744;50.938;7.286;2022-10-22T08:49:04;17.15;;;8.98;;
34497;SDS011;20744;50.938;7.286;2022-10-22T08:51:35;25.08;;;9.35;;
34497;SDS011;20744;50.938;7.286;2022-10-22T08:54:12;14.05;;;7.60;;
34497;SDS011;20744;50.938;7.286;2022-10-22T08:56:41;14.90;;;7.25;;
34497;SDS011;20744;50.938;7.286;2022-10-22T08:59:10;16.85;;;7.05;;
34497;SDS011;20744;50.938;7.286;2022-10-22T09:01:40;22.17;;;7.13;;
34497;SDS011;20744;50.938;7.286;2022-10-22T09:04:11;10.98;;;6.32;;
34497;SDS011;20744;50.938;7.286;2022-10-22T09:06:41;16.35;;;5.90;;
34497;SDS011;20744;50.938;7.286;2022-10-22T09:09:10;15.32;;;4.97;;
34497;SDS011;20744;50.938;7.286;2022-10-22T09:11:38;14.45;;;5.20;;
34497;SDS011;20744;50.938;7.286;2022-10-22T09:14:08;14.55;;;4.97;;
34497;SDS011;20744;50.938;7.286;2022-10-22T09:16:40;23.35;;;4.80;;
34497;SDS011;20744;50.938;7.286;2022-10-22T09:19:14;14.35;;;4.07;;
34497;SDS011;20744;50.938;7.286;2022-10-22T09:24:12;13.82;;;4.53;;
34497;SDS011;20744;50.938;7.286;2022-10-22T09:26:40;13.32;;;4.30;;
34497;SDS011;20744;50.938;7.286;2022-10-22T09:29:12;12.40;;;4.50;;
34497;SDS011;20744;50.938;7.286;2022-10-22T09:31:43;15.63;;;4.22;;
34497;SDS011;20744;50.938;7.286;2022-10-22T09:34:14;12.80;;;3.83;;
34497;SDS011;20744;50.938;7.286;2022-10-22T09:36:41;21.48;;;4.47;;
34497;SDS011;20744;50.938;7.286;2022-10-22T09:39:20;16.85;;;4.47;;
34497;SDS011;20744;50.938;7.286;2022-10-22T09:41:48;13.43;;;4.50;;
34497;SDS011;20744;50.938;7.286;2022-10-22T09:44:16;16.58;;;4.60;;
34497;SDS011;20744;50.938;7.286;2022-10-22T09:46:43;16.05;;;5.05;;
34497;SDS011;20744;50.938;7.286;2022-10-22T09:49:12;12.48;;;4.00;;
34497;SDS011;20744;50.938;7.286;2022-10-22T09:51:47;22.20;;;4.88;;
34497;SDS011;20744;50.938;7.286;2022-10-22T09:54:16;12.43;;;4.20;;
34497;SDS011;20744;50.938;7.286;2022-10-22T09:56:50;12.45;;;4.10;;
34497;SDS011;20744;50.938;7.286;2022-10-22T09:59:18;18.55;;;4.22;;
34497;SDS011;20744;50.938;7.286;2022-10-22T10:01:45;19.73;;;4.55;;
34497;SDS011;20744;50.938;7.286;2022-10-22T10:04:13;22.25;;;4.20;;
34497;SDS011;20744;50.938;7.286;2022-10-22T10:06:42;12.55;;;3.95;;
34497;SDS011;20744;50.938;7.286;2022-10-22T10:09:14;12.57;;;4.03;;
34497;SDS011;20744;50.938;7.286;2022-10-22T10:11:43;11.23;;;3.55;;
34497;SDS011;20744;50.938;7.286;2022-10-22T10:14:12;9.48;;;3.33;;
34497;SDS011;20744;50.938;7.286;2022-10-22T10:16:44;13.38;;;3.20;;
34497;SDS011;20744;50.938;7.286;2022-10-22T10:22:01;8.55;;;2.63;;
34497;SDS011;20744;50.938;7.286;2022-10-22T10:24:36;9.05;;;2.75;;
34497;SDS011;20744;50.938;7.286;2022-10-22T10:27:07;17.60;;;2.60;;
34497;SDS011;20744;50.938;7.286;2022-10-22T10:29:38;10.65;;;2.10;;
34497;SDS011;20744;50.938;7.286;2022-10-22T10:34:57;10.90;;;2.40;;
34497;SDS011;20744;50.938;7.286;2022-10-22T10:37:28;10.52;;;1.80;;
34497;SDS011;20744;50.938;7.286;2022-10-22T10:40:04;8.90;;;1.92;;
34497;SDS011;20744;50.938;7.286;2022-10-22T10:42:40;9.73;;;2.47;;
34497;SDS011;20744;50.938;7.286;2022-10-22T10:45:13;9.32;;;2.13;;
34497;SDS011;20744;50.938;7.286;2022-10-22T10:47:53;12.25;;;2.35;;
34497;SDS011;20744;50.938;7.286;2022-10-22T10:50:23;12.13;;;2.13;;
34497;SDS011;20744;50.938;7.286;2022-10-22T10:52:53;11.30;;;1.50;;
34497;SDS011;20744;50.938;7.286;2022-10-22T10:55:27;12.45;;;1.77;;
34497;SDS011;20744;50.938;7.286;2022-10-22T10:57:57;9.27;;;1.70;;
34497;SDS011;20744;50.938;7.286;2022-10-22T11:00:26;8.38;;;1.95;;
34497;SDS011;20744;50.938;7.286;2022-10-22T11:03:01;10.02;;;1.88;;
34497;SDS011;20744;50.938;7.286;2022-10-22T11:05:37;6.18;;;1.30;;
34497;SDS011;20744;50.938;7.286;2022-10-22T11:08:07;11.82;;;1.92;;
34497;SDS011;20744;50.938;7.286;2022-10-22T11:10:38;10.20;;;1.70;;
34497;SDS011;20744;50.938;7.286;2022-10-22T11:13:08;11.32;;;1.95;;
34497;SDS011;20744;50.938;7.286;2022-10-22T11:15:38;7.03;;;1.83;;
34497;SDS011;20744;50.938;7.286;2022-10-22T11:18:09;12.95;;;2.75;;
34497;SDS011;20744;50.938;7.286;2022-10-22T11:20:45;12.13;;;2.03;;
34497;SDS011;20744;50.938;7.286;2022-10-22T11:23:15;14.23;;;2.10;;
34497;SDS011;20744;50.938;7.286;2022-10-22T11:25:45;16.77;;;1.83;;
34497;SDS011;20744;50.938;7.286;2022-10-22T11:28:13;8.20;;;1.83;;
34497;SDS011;20744;50.938;7.286;2022-10-22T11:30:42;6.55;;;1.42;;
34497;SDS011;20744;50.938;7.286;2022-10-22T11:33:11;16.92;;;1.65;;
34497;SDS011;20744;50.938;7.286;2022-10-22T11:35:42;8.23;;;1.95;;
34497;SDS011;20744;50.938;7.286;2022-10-22T11:38:11;13.00;;;1.45;;
34497;SDS011;20744;50.938;7.286;2022-10-22T11:40:43;8.75;;;1.55;;
34497;SDS011;20744;50.938;7.286;2022-10-22T11:43:24;8.32;;;1.52;;
34497;SDS011;20744;50.938;7.286;2022-10-22T11:45:55;7.32;;;1.58;;
34497;SDS011;20744;50.938;7.286;2022-10-22T11:48:25;10.55;;;1.65;;
34497;SDS011;20744;50.938;7.286;2022-10-22T11:50:54;9.40;;;1.58;;
34497;SDS011;20744;50.938;7.286;2022-10-22T11:53:28;9.35;;;1.40;;
34497;SDS011;20744;50.938;7.286;2022-10-22T11:55:56;8.25;;;1.50;;
34497;SDS011;20744;50.938;7.286;2022-10-22T12:04:16;7.18;;;1.20;;
34497;SDS011;20744;50.938;7.286;2022-10-22T12:06:56;10.30;;;1.77;;
34497;SDS011;20744;50.938;7.286;2022-10-22T12:09:23;8.30;;;1.48;;
34497;SDS011;20744;50.938;7.286;2022-10-22T12:11:54;5.45;;;1.20;;
34497;SDS011;20744;50.938;7.286;2022-10-22T12:14:27;12.32;;;1.25;;
34497;SDS011;20744;50.938;7.286;2022-10-22T12:17:01;7.50;;;1.30;;
34497;SDS011;20744;50.938;7.286;2022-10-22T12:19:31;5.85;;;1.15;;
34497;SDS011;20744;50.938;7.286;2022-10-22T12:22:06;15.27;;;1.60;;
34497;SDS011;20744;50.938;7.286;2022-10-22T12:24:37;8.40;;;1.35;;
34497;SDS011;20744;50.938;7.286;2022-10-22T12:27:14;9.30;;;1.40;;
34497;SDS011;20744;50.938;7.286;2022-10-22T12:29:42;8.02;;;1.20;;
34497;SDS011;20744;50.938;7.286;2022-10-22T12:32:09;9.98;;;1.23;;
34497;SDS011;20744;50.938;7.286;2022-10-22T12:34:45;5.30;;;1.38;;
34497;SDS011;20744;50.938;7.286;2022-10-22T12:37:13;11.68;;;1.48;;
34497;SDS011;20744;50.938;7.286;2022-10-22T12:39:40;7.43;;;1.40;;
34497;SDS011;20744;50.938;7.286;2022-10-22T12:42:09;7.78;;;1.30;;
34497;SDS011;20744;50.938;7.286;2022-10-22T12:44:38;5.75;;;0.90;;
34497;SDS011;20744;50.938;7.286;2022-10-22T12:47:06;8.50;;;1.52;;
34497;SDS011;20744;50.938;7.286;2022-10-22T12:49:34;9.05;;;1.13;;
34497;SDS011;20744;50.938;7.286;2022-10-22T12:52:05;9.02;;;1.40;;
34497;SDS011;20744;50.938;7.286;2022-10-22T12:54:33;7.95;;;1.30;;
34497;SDS011;20744;50.938;7.286;2022-10-22T12:57:00;8.90;;;1.35;;
34497;SDS011;20744;50.938;7.286;2022-10-22T12:59:28;14.32;;;1.20;;
34497;SDS011;20744;50.938;7.286;2022-10-22T13:01:59;6.25;;;1.10;;
34497;SDS011;20744;50.938;7.286;2022-10-22T13:04:33;10.05;;;1.60;;
34497;SDS011;20744;50.938;7.286;2022-10-22T13:07:14;8.05;;;1.30;;
34497;SDS011;20744;50.938;7.286;2022-10-22T13:09:42;9.73;;;1.40;;
34497;SDS011;20744;50.938;7.286;2022-10-22T13:12:10;7.15;;;1.42;;
34497;SDS011;20744;50.938;7.286;2022-10-22T13:14:40;8.32;;;1.00;;
34497;SDS011;20744;50.938;7.286;2022-10-22T13:17:09;7.30;;;1.40;;
34497;SDS011;20744;50.938;7.286;2022-10-22T13:19:38;7.82;;;1.15;;
34497;SDS011;20744;50.938;7.286;2022-10-22T13:24:49;7.35;;;1.23;;
34497;SDS011;20744;50.938;7.286;2022-10-22T13:27:16;5.03;;;0.85;;
34497;SDS011;20744;50.938;7.286;2022-10-22T13:29:43;6.68;;;1.02;;
34497;SDS011;20744;50.938;7.286;2022-10-22T13:32:19;7.28;;;0.98;;
34497;SDS011;20744;50.938;7.286;2022-10-22T13:34:48;8.32;;;0.98;;
34497;SDS011;20744;50.938;7.286;2022-10-22T13:37:15;7.53;;;1.38;;
34497;SDS011;20744;50.938;7.286;2022-10-22T13:39:42;6.53;;;1.08;;
34497;SDS011;20744;50.938;7.286;2022-10-22T13:42:11;6.55;;;1.10;;
34497;SDS011;20744;50.938;7.286;2022-10-22T13:44:39;8.07;;;1.33;;
34497;SDS011;20744;50.938;7.286;2022-10-22T13:47:07;5.47;;;1.10;;
34497;SDS011;20744;50.938;7.286;2022-10-22T13:49:40;5.20;;;1.35;;
34497;SDS011;20744;50.938;7.286;2022-10-22T13:52:08;4.15;;;0.93;;
34497;SDS011;20744;50.938;7.286;2022-10-22T13:54:36;4.22;;;0.90;;
34497;SDS011;20744;50.938;7.286;2022-10-22T13:57:04;6.28;;;1.35;;
34497;SDS011;20744;50.938;7.286;2022-10-22T13:59:35;4.97;;;1.20;;
34497;SDS011;20744;50.938;7.286;2022-10-22T14:02:06;5.72;;;0.82;;
34497;SDS011;20744;50.938;7.286;2022-10-22T14:04:35;5.50;;;1.15;;
34497;SDS011;20744;50.938;7.286;2022-10-22T14:07:04;6.03;;;1.10;;
34497;SDS011;20744;50.938;7.286;2022-10-22T14:09:34;9.07;;;1.42;;
34497;SDS011;20744;50.938;7.286;2022-10-22T14:12:04;4.32;;;0.93;;
34497;SDS011;20744;50.938;7.286;2022-10-22T14:14:36;6.43;;;1.13;;
34497;SDS011;20744;50.938;7.286;2022-10-22T14:17:03;6.30;;;1.10;;
34497;SDS011;20744;50.938;7.286;2022-10-22T14:19:31;7.28;;;1.10;;
34497;SDS011;20744;50.938;7.286;2022-10-22T14:21:58;4.28;;;0.90;;
34497;SDS011;20744;50.938;7.286;2022-10-22T14:24:25;6.28;;;1.17;;
34497;SDS011;20744;50.938;7.286;2022-10-22T14:26:52;4.80;;;1.10;;
34497;SDS011;20744;50.938;7.286;2022-10-22T14:29:19;8.95;;;1.17;;
34497;SDS011;20744;50.938;7.286;2022-10-22T14:31:48;6.35;;;1.05;;
34497;SDS011;20744;50.938;7.286;2022-10-22T14:34:15;6.88;;;1.08;;
34497;SDS011;20744;50.938;7.286;2022-10-22T14:36:42;9.32;;;1.27;;
34497;SDS011;20744;50.938;7.286;2022-10-22T14:39:10;6.97;;;1.00;;
34497;SDS011;20744;50.938;7.286;2022-10-22T14:41:37;6.60;;;1.08;;
34497;SDS011;20744;50.938;7.286;2022-10-22T14:44:04;4.80;;;1.00;;
34497;SDS011;20744;50.938;7.286;2022-10-22T14:46:36;5.40;;;0.90;;
34497;SDS011;20744;50.938;7.286;2022-10-22T14:49:08;6.80;;;0.95;;
34497;SDS011;20744;50.938;7.286;2022-10-22T14:51:35;8.50;;;1.45;;
34497;SDS011;20744;50.938;7.286;2022-10-22T14:54:02;8.95;;;1.10;;
34497;SDS011;20744;50.938;7.286;2022-10-22T14:56:29;13.27;;;1.30;;
34497;SDS011;20744;50.938;7.286;2022-10-22T14:58:56;12.75;;;1.10;;
34497;SDS011;20744;50.938;7.286;2022-10-22T15:01:24;15.02;;;1.20;;
34497;SDS011;20744;50.938;7.286;2022-10-22T15:03:51;4.75;;;0.80;;
34497;SDS011;20744;50.938;7.286;2022-10-22T15:06:19;8.60;;;0.75;;